sensor_id;sensor_type;location;lat;lon;timestamp;P1;durP1;ratioP1;P2;durP2;ratioP2
19016;SDS011;9641;51.494;6.670;2022-10-14T00:01:00;15.73;;;9.83;;
19016;SDS011;9641;51.494;6.670;2022-10-14T00:03:31;15.33;;;10.33;;
19016;SDS011;9641;51.494;6.670;2022-10-14T00:05:58;22.53;;;11.33;;
19016;SDS011;9641;51.494;6.670;2022-10-14T00:08:28;17.83;;;10.53;;
19016;SDS011;9641;51.494;6.670;2022-10-14T00:10:57;20.10;;;11.17;;
19016;SDS011;9641;51.494;6.670;2022-10-14T00:13:30;17.50;;;11.60;;
19016;SDS011;9641;51.494;6.670;2022-10-14T00:15:57;16.30;;;9.37;;
19016;SDS011;9641;51.494;6.670;2022-10-14T00:18:27;18.57;;;10.23;;
19016;SDS011;9641;51.494;6.670;2022-10-14T00:20:55;17.17;;;10.50;;
19016;SDS011;9641;51.494;6.670;2022-10-14T00:23:23;18.10;;;10.30;;
19016;SDS011;9641;51.494;6.670;2022-10-14T00:25:50;17.67;;;10.77;;
19016;SDS011;9641;51.494;6.670;2022-10-14T00:28:18;19.33;;;11.93;;
19016;SDS011;9641;51.494;6.670;2022-10-14T00:30:51;23.93;;;10.93;;
19016;SDS011;9641;51.494;6.670;2022-10-14T00:33:19;19.53;;;11.10;;
19016;SDS011;9641;51.494;6.670;2022-10-14T00:35:53;24.10;;;12.20;;
19016;SDS011;9641;51.494;6.670;2022-10-14T00:38:22;18.23;;;12.47;;
19016;SDS011;9641;51.494;6.670;2022-10-14T00:40:51;23.33;;;12.97;;
19016;SDS011;9641;51.494;6.670;2022-10-14T00:43:20;18.50;;;12.37;;
19016;SDS011;9641;51.494;6.670;2022-10-14T00:45:48;24.27;;;12.57;;
19016;SDS011;9641;51.494;6.670;2022-10-14T00:48:16;24.93;;;13.40;;
19016;SDS011;9641;51.494;6.670;2022-10-14T00:50:44;26.90;;;14.20;;
19016;SDS011;9641;51.494;6.670;2022-10-14T00:53:15;20.10;;;12.37;;
19016;SDS011;9641;51.494;6.670;2022-10-14T00:55:43;24.57;;;13.70;;
19016;SDS011;9641;51.494;6.670;2022-10-14T00:58:11;24.50;;;14.10;;
19016;SDS011;9641;51.494;6.670;2022-10-14T01:00:38;22.30;;;14.00;;
19016;SDS011;9641;51.494;6.670;2022-10-14T01:03:06;20.27;;;13.47;;
19016;SDS011;9641;51.494;6.670;2022-10-14T01:05:35;21.43;;;13.83;;
19016;SDS011;9641;51.494;6.670;2022-10-14T01:08:09;29.57;;;14.80;;
19016;SDS011;9641;51.494;6.670;2022-10-14T01:10:43;20.67;;;13.47;;
19016;SDS011;9641;51.494;6.670;2022-10-14T01:13:18;24.10;;;13.30;;
19016;SDS011;9641;51.494;6.670;2022-10-14T01:15:52;22.43;;;13.60;;
19016;SDS011;9641;51.494;6.670;2022-10-14T01:18:32;25.87;;;14.47;;
19016;SDS011;9641;51.494;6.670;2022-10-14T01:21:18;24.40;;;14.63;;
19016;SDS011;9641;51.494;6.670;2022-10-14T01:26:55;25.77;;;13.73;;
19016;SDS011;9641;51.494;6.670;2022-10-14T01:29:53;22.63;;;13.40;;
19016;SDS011;9641;51.494;6.670;2022-10-14T01:32:31;22.07;;;13.20;;
19016;SDS011;9641;51.494;6.670;2022-10-14T01:35:07;22.17;;;13.33;;
19016;SDS011;9641;51.494;6.670;2022-10-14T01:37:38;23.80;;;14.07;;
19016;SDS011;9641;51.494;6.670;2022-10-14T01:40:16;23.63;;;13.97;;
19016;SDS011;9641;51.494;6.670;2022-10-14T01:42:48;28.20;;;13.90;;
19016;SDS011;9641;51.494;6.670;2022-10-14T01:45:18;25.57;;;14.00;;
19016;SDS011;9641;51.494;6.670;2022-10-14T01:47:48;21.27;;;12.73;;
19016;SDS011;9641;51.494;6.670;2022-10-14T01:50:17;23.47;;;12.87;;
19016;SDS011;9641;51.494;6.670;2022-10-14T01:52:47;24.70;;;13.90;;
19016;SDS011;9641;51.494;6.670;2022-10-14T01:55:19;26.20;;;13.97;;
19016;SDS011;9641;51.494;6.670;2022-10-14T01:57:50;24.00;;;13.73;;
19016;SDS011;9641;51.494;6.670;2022-10-14T02:00:24;20.87;;;12.50;;
19016;SDS011;9641;51.494;6.670;2022-10-14T02:02:51;24.23;;;12.73;;
19016;SDS011;9641;51.494;6.670;2022-10-14T02:05:19;26.10;;;13.27;;
19016;SDS011;9641;51.494;6.670;2022-10-14T02:07:51;23.03;;;13.50;;
19016;SDS011;9641;51.494;6.670;2022-10-14T02:10:26;18.33;;;12.77;;
19016;SDS011;9641;51.494;6.670;2022-10-14T02:13:06;20.37;;;12.77;;
19016;SDS011;9641;51.494;6.670;2022-10-14T02:15:52;21.63;;;12.37;;
19016;SDS011;9641;51.494;6.670;2022-10-14T02:18:29;23.37;;;12.37;;
19016;SDS011;9641;51.494;6.670;2022-10-14T02:21:02;20.73;;;12.87;;
19016;SDS011;9641;51.494;6.670;2022-10-14T02:23:35;18.27;;;11.93;;
19016;SDS011;9641;51.494;6.670;2022-10-14T02:26:06;22.67;;;12.10;;
19016;SDS011;9641;51.494;6.670;2022-10-14T02:28:34;22.37;;;11.10;;
19016;SDS011;9641;51.494;6.670;2022-10-14T02:31:04;23.33;;;12.17;;
19016;SDS011;9641;51.494;6.670;2022-10-14T02:33:36;19.47;;;12.53;;
19016;SDS011;9641;51.494;6.670;2022-10-14T02:36:07;20.87;;;12.40;;
19016;SDS011;9641;51.494;6.670;2022-10-14T02:38:36;24.40;;;12.23;;
19016;SDS011;9641;51.494;6.670;2022-10-14T02:41:05;18.43;;;11.87;;
19016;SDS011;9641;51.494;6.670;2022-10-14T02:43:37;18.87;;;11.30;;
19016;SDS011;9641;51.494;6.670;2022-10-14T02:46:06;20.97;;;11.50;;
19016;SDS011;9641;51.494;6.670;2022-10-14T02:48:33;21.83;;;11.70;;
19016;SDS011;9641;51.494;6.670;2022-10-14T02:51:00;20.80;;;11.70;;
19016;SDS011;9641;51.494;6.670;2022-10-14T02:53:27;19.97;;;12.27;;
19016;SDS011;9641;51.494;6.670;2022-10-14T02:55:56;21.03;;;11.67;;
19016;SDS011;9641;51.494;6.670;2022-10-14T02:58:24;18.00;;;12.47;;
19016;SDS011;9641;51.494;6.670;2022-10-14T03:00:51;19.53;;;12.53;;
19016;SDS011;9641;51.494;6.670;2022-10-14T03:03:19;17.83;;;11.67;;
19016;SDS011;9641;51.494;6.670;2022-10-14T03:05:47;22.40;;;12.17;;
19016;SDS011;9641;51.494;6.670;2022-10-14T03:08:15;17.57;;;11.23;;
19016;SDS011;9641;51.494;6.670;2022-10-14T03:10:44;20.93;;;12.77;;
19016;SDS011;9641;51.494;6.670;2022-10-14T03:13:12;17.80;;;11.63;;
19016;SDS011;9641;51.494;6.670;2022-10-14T03:15:43;18.77;;;11.63;;
19016;SDS011;9641;51.494;6.670;2022-10-14T03:18:12;18.90;;;11.50;;
19016;SDS011;9641;51.494;6.670;2022-10-14T03:20:45;19.90;;;12.43;;
19016;SDS011;9641;51.494;6.670;2022-10-14T03:23:17;23.03;;;11.93;;
19016;SDS011;9641;51.494;6.670;2022-10-14T03:25:47;23.00;;;13.10;;
19016;SDS011;9641;51.494;6.670;2022-10-14T03:28:27;22.83;;;13.50;;
19016;SDS011;9641;51.494;6.670;2022-10-14T03:31:11;23.43;;;13.73;;
19016;SDS011;9641;51.494;6.670;2022-10-14T03:33:56;19.87;;;12.73;;
19016;SDS011;9641;51.494;6.670;2022-10-14T03:36:27;20.77;;;12.17;;
19016;SDS011;9641;51.494;6.670;2022-10-14T03:38:55;22.50;;;13.27;;
19016;SDS011;9641;51.494;6.670;2022-10-14T03:41:41;21.27;;;12.93;;
19016;SDS011;9641;51.494;6.670;2022-10-14T03:44:10;23.63;;;14.30;;
19016;SDS011;9641;51.494;6.670;2022-10-14T03:46:43;24.97;;;14.60;;
19016;SDS011;9641;51.494;6.670;2022-10-14T03:49:09;24.47;;;14.30;;
19016;SDS011;9641;51.494;6.670;2022-10-14T03:51:39;22.53;;;14.47;;
19016;SDS011;9641;51.494;6.670;2022-10-14T03:54:21;23.47;;;14.47;;
19016;SDS011;9641;51.494;6.670;2022-10-14T03:56:48;23.73;;;14.83;;
19016;SDS011;9641;51.494;6.670;2022-10-14T03:59:17;23.80;;;13.63;;
19016;SDS011;9641;51.494;6.670;2022-10-14T04:01:48;22.13;;;13.57;;
19016;SDS011;9641;51.494;6.670;2022-10-14T04:04:22;22.27;;;14.53;;
19016;SDS011;9641;51.494;6.670;2022-10-14T04:06:50;25.70;;;16.03;;
19016;SDS011;9641;51.494;6.670;2022-10-14T04:09:19;20.80;;;14.57;;
19016;SDS011;9641;51.494;6.670;2022-10-14T04:11:47;20.80;;;14.03;;
19016;SDS011;9641;51.494;6.670;2022-10-14T04:14:34;20.80;;;13.30;;
19016;SDS011;9641;51.494;6.670;2022-10-14T04:17:01;22.80;;;14.77;;
19016;SDS011;9641;51.494;6.670;2022-10-14T04:19:28;21.37;;;14.27;;
19016;SDS011;9641;51.494;6.670;2022-10-14T04:21:57;25.37;;;15.03;;
19016;SDS011;9641;51.494;6.670;2022-10-14T04:24:26;21.20;;;13.87;;
19016;SDS011;9641;51.494;6.670;2022-10-14T04:26:56;22.27;;;13.97;;
19016;SDS011;9641;51.494;6.670;2022-10-14T04:29:33;23.17;;;14.20;;
19016;SDS011;9641;51.494;6.670;2022-10-14T04:32:06;22.50;;;14.07;;
19016;SDS011;9641;51.494;6.670;2022-10-14T04:34:34;27.07;;;14.80;;
19016;SDS011;9641;51.494;6.670;2022-10-14T04:37:04;22.07;;;14.23;;
19016;SDS011;9641;51.494;6.670;2022-10-14T04:39:44;24.20;;;14.17;;
19016;SDS011;9641;51.494;6.670;2022-10-14T04:42:11;23.97;;;14.17;;
19016;SDS011;9641;51.494;6.670;2022-10-14T04:44:39;22.80;;;14.73;;
19016;SDS011;9641;51.494;6.670;2022-10-14T04:47:09;24.67;;;14.53;;
19016;SDS011;9641;51.494;6.670;2022-10-14T04:49:36;26.90;;;15.93;;
19016;SDS011;9641;51.494;6.670;2022-10-14T04:52:16;27.97;;;14.77;;
19016;SDS011;9641;51.494;6.670;2022-10-14T04:55:06;23.20;;;14.30;;
19016;SDS011;9641;51.494;6.670;2022-10-14T04:57:37;25.67;;;15.87;;
19016;SDS011;9641;51.494;6.670;2022-10-14T05:00:08;25.63;;;15.43;;
19016;SDS011;9641;51.494;6.670;2022-10-14T05:02:56;26.57;;;15.10;;
19016;SDS011;9641;51.494;6.670;2022-10-14T05:05:30;31.10;;;16.90;;
19016;SDS011;9641;51.494;6.670;2022-10-14T05:08:00;27.67;;;16.13;;
19016;SDS011;9641;51.494;6.670;2022-10-14T05:10:34;23.83;;;14.77;;
19016;SDS011;9641;51.494;6.670;2022-10-14T05:13:04;22.80;;;14.07;;
19016;SDS011;9641;51.494;6.670;2022-10-14T05:15:35;25.87;;;15.17;;
19016;SDS011;9641;51.494;6.670;2022-10-14T05:18:10;27.07;;;15.27;;
19016;SDS011;9641;51.494;6.670;2022-10-14T05:20:58;22.00;;;14.03;;
19016;SDS011;9641;51.494;6.670;2022-10-14T05:23:36;22.67;;;13.73;;
19016;SDS011;9641;51.494;6.670;2022-10-14T05:26:03;18.90;;;12.20;;
19016;SDS011;9641;51.494;6.670;2022-10-14T05:28:30;21.90;;;13.73;;
19016;SDS011;9641;51.494;6.670;2022-10-14T05:30:57;21.43;;;13.40;;
19016;SDS011;9641;51.494;6.670;2022-10-14T05:33:24;20.00;;;13.27;;
19016;SDS011;9641;51.494;6.670;2022-10-14T05:35:51;22.27;;;13.13;;
19016;SDS011;9641;51.494;6.670;2022-10-14T05:38:18;23.90;;;14.20;;
19016;SDS011;9641;51.494;6.670;2022-10-14T05:40:51;22.63;;;13.63;;
19016;SDS011;9641;51.494;6.670;2022-10-14T05:43:19;20.30;;;12.40;;
19016;SDS011;9641;51.494;6.670;2022-10-14T05:45:46;21.60;;;13.00;;
19016;SDS011;9641;51.494;6.670;2022-10-14T05:48:13;20.60;;;12.23;;
19016;SDS011;9641;51.494;6.670;2022-10-14T05:50:40;17.90;;;11.47;;
19016;SDS011;9641;51.494;6.670;2022-10-14T05:53:11;18.70;;;12.10;;
19016;SDS011;9641;51.494;6.670;2022-10-14T05:55:43;21.50;;;12.47;;
19016;SDS011;9641;51.494;6.670;2022-10-14T05:58:12;19.10;;;11.87;;
19016;SDS011;9641;51.494;6.670;2022-10-14T06:00:41;19.07;;;11.80;;
19016;SDS011;9641;51.494;6.670;2022-10-14T06:03:13;19.90;;;12.60;;
19016;SDS011;9641;51.494;6.670;2022-10-14T06:05:39;19.67;;;12.67;;
19016;SDS011;9641;51.494;6.670;2022-10-14T06:08:07;20.43;;;13.63;;
19016;SDS011;9641;51.494;6.670;2022-10-14T06:10:36;24.23;;;13.50;;
19016;SDS011;9641;51.494;6.670;2022-10-14T06:13:03;24.43;;;14.50;;
19016;SDS011;9641;51.494;6.670;2022-10-14T06:15:34;24.00;;;13.43;;
19016;SDS011;9641;51.494;6.670;2022-10-14T06:18:01;21.67;;;13.23;;
19016;SDS011;9641;51.494;6.670;2022-10-14T06:20:28;23.07;;;13.20;;
19016;SDS011;9641;51.494;6.670;2022-10-14T06:22:56;22.43;;;13.67;;
19016;SDS011;9641;51.494;6.670;2022-10-14T06:25:23;23.10;;;14.03;;
19016;SDS011;9641;51.494;6.670;2022-10-14T06:27:50;17.03;;;11.83;;
19016;SDS011;9641;51.494;6.670;2022-10-14T06:30:17;24.00;;;14.27;;
19016;SDS011;9641;51.494;6.670;2022-10-14T06:32:49;23.60;;;14.03;;
19016;SDS011;9641;51.494;6.670;2022-10-14T06:35:18;22.37;;;13.83;;
19016;SDS011;9641;51.494;6.670;2022-10-14T06:37:44;22.17;;;13.40;;
19016;SDS011;9641;51.494;6.670;2022-10-14T06:40:11;22.07;;;13.13;;
19016;SDS011;9641;51.494;6.670;2022-10-14T06:42:38;22.73;;;12.83;;
19016;SDS011;9641;51.494;6.670;2022-10-14T06:45:07;21.37;;;13.00;;
19016;SDS011;9641;51.494;6.670;2022-10-14T06:47:34;19.00;;;12.53;;
19016;SDS011;9641;51.494;6.670;2022-10-14T06:50:03;21.03;;;12.33;;
19016;SDS011;9641;51.494;6.670;2022-10-14T06:52:30;19.47;;;12.00;;
19016;SDS011;9641;51.494;6.670;2022-10-14T06:54:57;19.40;;;13.37;;
19016;SDS011;9641;51.494;6.670;2022-10-14T06:57:24;24.90;;;13.13;;
19016;SDS011;9641;51.494;6.670;2022-10-14T06:59:51;21.47;;;13.00;;
19016;SDS011;9641;51.494;6.670;2022-10-14T07:02:18;23.27;;;12.87;;
19016;SDS011;9641;51.494;6.670;2022-10-14T07:04:44;20.10;;;11.83;;
19016;SDS011;9641;51.494;6.670;2022-10-14T07:07:12;19.00;;;12.17;;
19016;SDS011;9641;51.494;6.670;2022-10-14T07:09:39;15.67;;;11.13;;
19016;SDS011;9641;51.494;6.670;2022-10-14T07:12:06;16.90;;;10.33;;
19016;SDS011;9641;51.494;6.670;2022-10-14T07:14:34;15.97;;;9.53;;
19016;SDS011;9641;51.494;6.670;2022-10-14T07:17:01;14.77;;;9.60;;
19016;SDS011;9641;51.494;6.670;2022-10-14T07:19:28;14.30;;;8.90;;
19016;SDS011;9641;51.494;6.670;2022-10-14T07:21:55;12.67;;;8.93;;
19016;SDS011;9641;51.494;6.670;2022-10-14T07:24:23;14.73;;;9.93;;
19016;SDS011;9641;51.494;6.670;2022-10-14T07:26:50;16.93;;;10.77;;
19016;SDS011;9641;51.494;6.670;2022-10-14T07:29:17;18.03;;;10.70;;
19016;SDS011;9641;51.494;6.670;2022-10-14T07:31:45;16.33;;;11.20;;
19016;SDS011;9641;51.494;6.670;2022-10-14T07:34:11;16.97;;;10.93;;
19016;SDS011;9641;51.494;6.670;2022-10-14T07:36:38;14.87;;;10.10;;
19016;SDS011;9641;51.494;6.670;2022-10-14T07:39:06;14.97;;;10.37;;
19016;SDS011;9641;51.494;6.670;2022-10-14T07:41:34;14.43;;;10.00;;
19016;SDS011;9641;51.494;6.670;2022-10-14T07:44:10;16.47;;;10.37;;
19016;SDS011;9641;51.494;6.670;2022-10-14T07:46:42;17.03;;;10.77;;
19016;SDS011;9641;51.494;6.670;2022-10-14T07:49:10;13.63;;;9.63;;
19016;SDS011;9641;51.494;6.670;2022-10-14T07:51:41;15.07;;;10.23;;
19016;SDS011;9641;51.494;6.670;2022-10-14T07:54:11;15.73;;;10.20;;
19016;SDS011;9641;51.494;6.670;2022-10-14T07:56:59;18.00;;;11.33;;
19016;SDS011;9641;51.494;6.670;2022-10-14T07:59:37;17.10;;;10.83;;
19016;SDS011;9641;51.494;6.670;2022-10-14T08:05:00;16.33;;;10.37;;
19016;SDS011;9641;51.494;6.670;2022-10-14T08:07:28;18.37;;;10.97;;
19016;SDS011;9641;51.494;6.670;2022-10-14T08:09:55;18.87;;;11.67;;
19016;SDS011;9641;51.494;6.670;2022-10-14T08:12:24;18.30;;;11.70;;
19016;SDS011;9641;51.494;6.670;2022-10-14T08:14:53;18.17;;;11.03;;
19016;SDS011;9641;51.494;6.670;2022-10-14T08:17:21;20.03;;;12.00;;
19016;SDS011;9641;51.494;6.670;2022-10-14T08:19:48;17.50;;;12.60;;
19016;SDS011;9641;51.494;6.670;2022-10-14T08:22:15;23.23;;;12.77;;
19016;SDS011;9641;51.494;6.670;2022-10-14T08:24:42;18.97;;;12.43;;
19016;SDS011;9641;51.494;6.670;2022-10-14T08:27:09;19.67;;;12.77;;
19016;SDS011;9641;51.494;6.670;2022-10-14T08:29:38;21.13;;;13.23;;
19016;SDS011;9641;51.494;6.670;2022-10-14T08:32:05;18.47;;;13.13;;
19016;SDS011;9641;51.494;6.670;2022-10-14T08:34:32;18.90;;;12.27;;
19016;SDS011;9641;51.494;6.670;2022-10-14T08:37:00;20.03;;;12.37;;
19016;SDS011;9641;51.494;6.670;2022-10-14T08:39:27;18.53;;;12.27;;
19016;SDS011;9641;51.494;6.670;2022-10-14T08:44:55;16.50;;;11.13;;
19016;SDS011;9641;51.494;6.670;2022-10-14T08:47:29;15.43;;;11.43;;
19016;SDS011;9641;51.494;6.670;2022-10-14T08:50:03;13.70;;;10.00;;
19016;SDS011;9641;51.494;6.670;2022-10-14T08:52:41;13.07;;;9.60;;
19016;SDS011;9641;51.494;6.670;2022-10-14T08:55:26;13.83;;;9.77;;
19016;SDS011;9641;51.494;6.670;2022-10-14T08:58:03;11.97;;;9.03;;
19016;SDS011;9641;51.494;6.670;2022-10-14T09:00:38;13.13;;;9.73;;
19016;SDS011;9641;51.494;6.670;2022-10-14T09:03:26;12.00;;;8.73;;
19016;SDS011;9641;51.494;6.670;2022-10-14T09:05:59;14.13;;;9.43;;
19016;SDS011;9641;51.494;6.670;2022-10-14T09:08:30;12.70;;;8.87;;
19016;SDS011;9641;51.494;6.670;2022-10-14T09:11:02;9.03;;;7.60;;
19016;SDS011;9641;51.494;6.670;2022-10-14T09:13:33;11.10;;;8.33;;
19016;SDS011;9641;51.494;6.670;2022-10-14T09:16:14;12.27;;;7.63;;
19016;SDS011;9641;51.494;6.670;2022-10-14T09:18:45;9.33;;;7.00;;
19016;SDS011;9641;51.494;6.670;2022-10-14T09:21:24;9.33;;;7.37;;
19016;SDS011;9641;51.494;6.670;2022-10-14T09:23:59;7.93;;;6.80;;
19016;SDS011;9641;51.494;6.670;2022-10-14T09:26:31;8.47;;;6.93;;
19016;SDS011;9641;51.494;6.670;2022-10-14T09:29:25;12.60;;;6.37;;
19016;SDS011;9641;51.494;6.670;2022-10-14T09:32:07;7.73;;;6.53;;
19016;SDS011;9641;51.494;6.670;2022-10-14T09:34:38;10.47;;;5.57;;
19016;SDS011;9641;51.494;6.670;2022-10-14T09:37:24;7.17;;;5.63;;
19016;SDS011;9641;51.494;6.670;2022-10-14T09:39:53;6.63;;;5.30;;
19016;SDS011;9641;51.494;6.670;2022-10-14T09:42:26;6.43;;;4.67;;
19016;SDS011;9641;51.494;6.670;2022-10-14T09:45:07;5.17;;;4.67;;
19016;SDS011;9641;51.494;6.670;2022-10-14T09:47:40;6.60;;;4.67;;
19016;SDS011;9641;51.494;6.670;2022-10-14T09:50:17;5.13;;;4.57;;
19016;SDS011;9641;51.494;6.670;2022-10-14T09:52:52;7.10;;;4.40;;
19016;SDS011;9641;51.494;6.670;2022-10-14T09:55:22;5.43;;;4.00;;
19016;SDS011;9641;51.494;6.670;2022-10-14T09:58:04;4.40;;;4.00;;
19016;SDS011;9641;51.494;6.670;2022-10-14T10:00:34;4.87;;;4.20;;
19016;SDS011;9641;51.494;6.670;2022-10-14T10:03:04;7.93;;;4.70;;
19016;SDS011;9641;51.494;6.670;2022-10-14T10:05:32;4.80;;;4.30;;
19016;SDS011;9641;51.494;6.670;2022-10-14T10:08:01;10.00;;;5.20;;
19016;SDS011;9641;51.494;6.670;2022-10-14T10:10:40;7.37;;;5.83;;
19016;SDS011;9641;51.494;6.670;2022-10-14T10:13:19;10.43;;;6.77;;
19016;SDS011;9641;51.494;6.670;2022-10-14T10:15:55;7.03;;;5.73;;
19016;SDS011;9641;51.494;6.670;2022-10-14T10:18:25;8.17;;;6.13;;
19016;SDS011;9641;51.494;6.670;2022-10-14T10:20:59;9.80;;;6.23;;
19016;SDS011;9641;51.494;6.670;2022-10-14T10:23:30;10.53;;;5.43;;
19016;SDS011;9641;51.494;6.670;2022-10-14T10:28:48;8.87;;;5.27;;
19016;SDS011;9641;51.494;6.670;2022-10-14T10:31:20;6.93;;;4.90;;
19016;SDS011;9641;51.494;6.670;2022-10-14T10:34:08;5.70;;;4.97;;
19016;SDS011;9641;51.494;6.670;2022-10-14T10:37:01;7.90;;;5.23;;
19016;SDS011;9641;51.494;6.670;2022-10-14T10:39:37;8.00;;;4.93;;
19016;SDS011;9641;51.494;6.670;2022-10-14T10:42:14;6.43;;;5.33;;
19016;SDS011;9641;51.494;6.670;2022-10-14T10:44:57;5.57;;;4.63;;
19016;SDS011;9641;51.494;6.670;2022-10-14T10:47:32;7.70;;;4.90;;
19016;SDS011;9641;51.494;6.670;2022-10-14T10:50:14;8.90;;;5.10;;
19016;SDS011;9641;51.494;6.670;2022-10-14T10:52:57;6.40;;;5.33;;
19016;SDS011;9641;51.494;6.670;2022-10-14T10:55:32;7.37;;;5.17;;
19016;SDS011;9641;51.494;6.670;2022-10-14T10:58:07;5.97;;;4.53;;
19016;SDS011;9641;51.494;6.670;2022-10-14T11:00:46;7.23;;;4.97;;
19016;SDS011;9641;51.494;6.670;2022-10-14T11:03:23;6.17;;;4.63;;
19016;SDS011;9641;51.494;6.670;2022-10-14T11:06:41;9.23;;;5.33;;
19016;SDS011;9641;51.494;6.670;2022-10-14T11:09:37;8.43;;;5.70;;
19016;SDS011;9641;51.494;6.670;2022-10-14T11:12:26;7.17;;;5.13;;
19016;SDS011;9641;51.494;6.670;2022-10-14T11:17:56;10.03;;;6.07;;
19016;SDS011;9641;51.494;6.670;2022-10-14T11:20:34;7.70;;;5.90;;
19016;SDS011;9641;51.494;6.670;2022-10-14T11:23:26;10.97;;;5.17;;
19016;SDS011;9641;51.494;6.670;2022-10-14T11:26:03;8.90;;;5.53;;
19016;SDS011;9641;51.494;6.670;2022-10-14T11:28:44;7.63;;;5.60;;
19016;SDS011;9641;51.494;6.670;2022-10-14T11:31:22;9.60;;;5.50;;
19016;SDS011;9641;51.494;6.670;2022-10-14T11:33:58;10.87;;;5.97;;
19016;SDS011;9641;51.494;6.670;2022-10-14T11:36:35;10.37;;;6.37;;
19016;SDS011;9641;51.494;6.670;2022-10-14T11:39:16;8.80;;;5.60;;
19016;SDS011;9641;51.494;6.670;2022-10-14T11:41:58;8.13;;;5.97;;
19016;SDS011;9641;51.494;6.670;2022-10-14T11:44:38;9.27;;;6.20;;
19016;SDS011;9641;51.494;6.670;2022-10-14T11:47:08;10.97;;;6.23;;
19016;SDS011;9641;51.494;6.670;2022-10-14T11:49:41;8.63;;;6.33;;
19016;SDS011;9641;51.494;6.670;2022-10-14T11:52:15;9.40;;;6.57;;
19016;SDS011;9641;51.494;6.670;2022-10-14T11:54:49;8.97;;;6.30;;
19016;SDS011;9641;51.494;6.670;2022-10-14T11:57:25;10.10;;;6.90;;
19016;SDS011;9641;51.494;6.670;2022-10-14T12:03:26;8.30;;;6.87;;
19016;SDS011;9641;51.494;6.670;2022-10-14T12:06:10;13.83;;;7.33;;
19016;SDS011;9641;51.494;6.670;2022-10-14T12:08:45;11.10;;;7.70;;
19016;SDS011;9641;51.494;6.670;2022-10-14T12:11:21;9.47;;;7.37;;
19016;SDS011;9641;51.494;6.670;2022-10-14T12:13:55;10.07;;;7.87;;
19016;SDS011;9641;51.494;6.670;2022-10-14T12:16:27;10.50;;;7.90;;
19016;SDS011;9641;51.494;6.670;2022-10-14T12:18:56;11.30;;;8.13;;
19016;SDS011;9641;51.494;6.670;2022-10-14T12:21:28;11.77;;;8.07;;
19016;SDS011;9641;51.494;6.670;2022-10-14T12:23:59;13.60;;;8.60;;
19016;SDS011;9641;51.494;6.670;2022-10-14T12:26:49;12.07;;;8.50;;
19016;SDS011;9641;51.494;6.670;2022-10-14T12:29:18;11.40;;;8.13;;
19016;SDS011;9641;51.494;6.670;2022-10-14T12:31:48;14.03;;;8.70;;
19016;SDS011;9641;51.494;6.670;2022-10-14T12:34:35;13.00;;;9.00;;
19016;SDS011;9641;51.494;6.670;2022-10-14T12:40:23;10.70;;;8.40;;
19016;SDS011;9641;51.494;6.670;2022-10-14T12:42:56;11.57;;;8.73;;
19016;SDS011;9641;51.494;6.670;2022-10-14T12:45:29;13.43;;;8.70;;
19016;SDS011;9641;51.494;6.670;2022-10-14T12:48:00;14.53;;;8.23;;
19016;SDS011;9641;51.494;6.670;2022-10-14T12:50:33;12.03;;;9.00;;
19016;SDS011;9641;51.494;6.670;2022-10-14T12:53:03;13.50;;;8.93;;
19016;SDS011;9641;51.494;6.670;2022-10-14T12:55:35;12.97;;;8.37;;
19016;SDS011;9641;51.494;6.670;2022-10-14T12:58:17;12.67;;;8.07;;
19016;SDS011;9641;51.494;6.670;2022-10-14T13:00:54;9.97;;;7.83;;
19016;SDS011;9641;51.494;6.670;2022-10-14T13:03:24;11.47;;;7.90;;
19016;SDS011;9641;51.494;6.670;2022-10-14T13:05:52;10.40;;;8.17;;
19016;SDS011;9641;51.494;6.670;2022-10-14T13:18:35;11.50;;;8.50;;
19016;SDS011;9641;51.494;6.670;2022-10-14T13:21:19;10.57;;;8.03;;
19016;SDS011;9641;51.494;6.670;2022-10-14T13:23:55;10.17;;;8.07;;
19016;SDS011;9641;51.494;6.670;2022-10-14T13:26:26;16.63;;;8.57;;
19016;SDS011;9641;51.494;6.670;2022-10-14T13:29:03;12.67;;;8.87;;
19016;SDS011;9641;51.494;6.670;2022-10-14T13:31:43;11.20;;;9.40;;
19016;SDS011;9641;51.494;6.670;2022-10-14T13:34:19;11.13;;;9.17;;
19016;SDS011;9641;51.494;6.670;2022-10-14T13:36:58;12.57;;;8.60;;
19016;SDS011;9641;51.494;6.670;2022-10-14T13:39:35;10.00;;;8.37;;
19016;SDS011;9641;51.494;6.670;2022-10-14T13:42:02;13.00;;;8.60;;
19016;SDS011;9641;51.494;6.670;2022-10-14T13:44:29;10.30;;;8.47;;
19016;SDS011;9641;51.494;6.670;2022-10-14T13:46:59;9.67;;;8.10;;
19016;SDS011;9641;51.494;6.670;2022-10-14T13:49:29;13.00;;;8.73;;
19016;SDS011;9641;51.494;6.670;2022-10-14T13:52:03;10.50;;;8.30;;
19016;SDS011;9641;51.494;6.670;2022-10-14T13:54:32;12.63;;;9.57;;
19016;SDS011;9641;51.494;6.670;2022-10-14T13:57:00;13.70;;;9.10;;
19016;SDS011;9641;51.494;6.670;2022-10-14T13:59:28;12.30;;;10.00;;
19016;SDS011;9641;51.494;6.670;2022-10-14T14:01:56;16.00;;;11.13;;
19016;SDS011;9641;51.494;6.670;2022-10-14T14:04:28;16.00;;;10.97;;
19016;SDS011;9641;51.494;6.670;2022-10-14T14:06:59;17.33;;;10.10;;
19016;SDS011;9641;51.494;6.670;2022-10-14T14:09:28;17.33;;;10.03;;
19016;SDS011;9641;51.494;6.670;2022-10-14T14:11:58;11.93;;;9.33;;
19016;SDS011;9641;51.494;6.670;2022-10-14T14:14:30;17.83;;;11.03;;
19016;SDS011;9641;51.494;6.670;2022-10-14T14:17:01;15.93;;;10.47;;
19016;SDS011;9641;51.494;6.670;2022-10-14T14:19:32;18.23;;;10.83;;
19016;SDS011;9641;51.494;6.670;2022-10-14T14:22:04;21.10;;;11.00;;
19016;SDS011;9641;51.494;6.670;2022-10-14T14:24:42;20.93;;;12.10;;
19016;SDS011;9641;51.494;6.670;2022-10-14T14:27:13;21.93;;;11.63;;
19016;SDS011;9641;51.494;6.670;2022-10-14T14:29:43;20.10;;;11.80;;
19016;SDS011;9641;51.494;6.670;2022-10-14T14:32:15;21.13;;;10.93;;
19016;SDS011;9641;51.494;6.670;2022-10-14T14:34:47;18.43;;;10.90;;
19016;SDS011;9641;51.494;6.670;2022-10-14T14:37:19;16.73;;;10.77;;
19016;SDS011;9641;51.494;6.670;2022-10-14T14:39:54;16.63;;;10.70;;
19016;SDS011;9641;51.494;6.670;2022-10-14T14:42:23;14.43;;;9.33;;
19016;SDS011;9641;51.494;6.670;2022-10-14T14:44:53;15.87;;;10.53;;
19016;SDS011;9641;51.494;6.670;2022-10-14T14:47:25;16.90;;;10.80;;
19016;SDS011;9641;51.494;6.670;2022-10-14T14:49:55;18.20;;;11.50;;
19016;SDS011;9641;51.494;6.670;2022-10-14T14:52:24;18.23;;;10.70;;
19016;SDS011;9641;51.494;6.670;2022-10-14T14:54:53;18.07;;;12.47;;
19016;SDS011;9641;51.494;6.670;2022-10-14T14:57:20;18.53;;;10.70;;
19016;SDS011;9641;51.494;6.670;2022-10-14T14:59:52;17.13;;;11.17;;
19016;SDS011;9641;51.494;6.670;2022-10-14T15:02:26;17.83;;;10.93;;
19016;SDS011;9641;51.494;6.670;2022-10-14T15:04:59;16.37;;;10.33;;
19016;SDS011;9641;51.494;6.670;2022-10-14T15:07:28;15.97;;;10.63;;
19016;SDS011;9641;51.494;6.670;2022-10-14T15:09:55;20.00;;;11.60;;
19016;SDS011;9641;51.494;6.670;2022-10-14T15:12:25;17.60;;;12.07;;
19016;SDS011;9641;51.494;6.670;2022-10-14T15:14:58;18.00;;;10.87;;
19016;SDS011;9641;51.494;6.670;2022-10-14T15:17:28;15.30;;;11.13;;
19016;SDS011;9641;51.494;6.670;2022-10-14T15:20:19;21.97;;;12.83;;
19016;SDS011;9641;51.494;6.670;2022-10-14T15:22:53;24.63;;;13.50;;
19016;SDS011;9641;51.494;6.670;2022-10-14T15:25:23;17.17;;;12.37;;
19016;SDS011;9641;51.494;6.670;2022-10-14T15:28:00;20.10;;;11.77;;
19016;SDS011;9641;51.494;6.670;2022-10-14T15:30:33;18.17;;;11.60;;
19016;SDS011;9641;51.494;6.670;2022-10-14T15:33:18;14.70;;;11.20;;
19016;SDS011;9641;51.494;6.670;2022-10-14T15:35:54;18.30;;;11.90;;
19016;SDS011;9641;51.494;6.670;2022-10-14T15:38:22;18.10;;;11.37;;
19016;SDS011;9641;51.494;6.670;2022-10-14T15:40:50;14.17;;;10.23;;
19016;SDS011;9641;51.494;6.670;2022-10-14T15:43:21;17.83;;;11.10;;